createdAt,value
2018-06-11T00:01:14.176Z,81.45
2018-06-11T00:03:42.603Z,82.10
2018-06-11T00:06:10.982Z,81.58
2018-06-11T00:08:39.393Z,81.70
2018-06-11T00:11:07.771Z,81.19
2018-06-11T00:13:36.158Z,81.99
2018-06-11T00:16:04.563Z,81.33
2018-06-11T00:18:32.947Z,82.21
2018-06-11T00:21:01.338Z,81.95
2018-06-11T00:23:29.813Z,81.68
2018-06-11T00:25:58.210Z,82.11
2018-06-11T00:28:26.587Z,81.15
2018-06-11T00:30:54.983Z,81.59
2018-06-11T00:33:23.362Z,81.12
2018-06-11T00:35:51.758Z,81.93
2018-06-11T00:38:20.135Z,81.83
2018-06-11T00:40:48.540Z,81.95
2018-06-11T00:43:16.916Z,82.46
2018-06-11T00:45:45.315Z,82.15
2018-06-11T00:48:13.694Z,81.84
2018-06-11T00:50:42.094Z,82.46
2018-06-11T00:53:10.477Z,82.31
2018-06-11T00:55:50.139Z,82.39
2018-06-11T00:58:18.514Z,82.99
2018-06-11T01:00:46.910Z,82.68
2018-06-11T01:03:15.319Z,83.34
2018-06-11T01:05:43.714Z,82.69
2018-06-11T01:08:12.086Z,83.65
2018-06-11T01:10:40.491Z,82.98
2018-06-11T01:13:08.870Z,83.36
2018-06-11T01:15:37.262Z,83.62
2018-06-11T01:18:05.645Z,83.84
2018-06-11T01:20:34.048Z,83.18
2018-06-11T01:23:02.431Z,83.92
2018-06-11T01:25:30.834Z,83.35
2018-06-11T01:27:59.201Z,84.00
2018-06-11T01:30:27.594Z,83.99
2018-06-11T01:32:55.961Z,83.36
2018-06-11T01:35:24.378Z,83.78
2018-06-11T01:37:52.752Z,83.68
2018-06-11T01:40:21.126Z,83.02
2018-06-11T01:42:49.530Z,83.31
2018-06-11T01:45:17.902Z,84.09
2018-06-11T01:47:46.303Z,83.05
2018-06-11T01:50:14.686Z,83.68
2018-06-11T01:52:43.090Z,83.78
2018-06-11T01:55:11.466Z,83.67
2018-06-11T01:57:39.870Z,83.00
2018-06-11T02:00:08.248Z,83.53
2018-06-11T02:02:36.675Z,82.68
2018-06-11T02:05:05.081Z,83.14
2018-06-11T02:07:33.490Z,82.79
2018-06-11T02:10:01.867Z,82.51
2018-06-11T02:12:30.262Z,82.32
2018-06-11T02:14:58.639Z,82.73
2018-06-11T02:17:27.039Z,81.71
2018-06-11T02:19:55.410Z,82.51
2018-06-11T02:22:23.858Z,81.76
2018-06-11T02:24:52.235Z,82.51
2018-06-11T02:27:20.638Z,82.44
2018-06-11T02:29:49.024Z,82.88
2018-06-11T02:32:17.430Z,82.76
2018-06-11T02:34:45.806Z,82.18
2018-06-11T02:37:14.202Z,82.35
2018-06-11T02:39:42.574Z,83.33
2018-06-11T02:42:10.987Z,83.08
2018-06-11T02:44:39.367Z,82.81
2018-06-11T02:47:07.767Z,82.96
2018-06-11T02:49:36.146Z,82.84
2018-06-11T02:52:04.542Z,82.58
2018-06-11T02:54:33.024Z,82.81
2018-06-11T02:57:01.402Z,82.69
2018-06-11T02:59:29.807Z,82.13
2018-06-11T03:01:58.202Z,82.71
2018-06-11T03:04:26.630Z,82.45
2018-06-11T03:06:55.010Z,82.56
2018-06-11T03:09:23.411Z,81.88
2018-06-11T03:11:51.790Z,81.52
2018-06-11T03:14:20.191Z,82.08
2018-06-11T03:16:48.571Z,81.37
2018-06-11T03:19:16.970Z,81.35
2018-06-11T03:21:45.346Z,81.32
2018-06-11T03:24:13.750Z,80.58
2018-06-11T03:26:42.126Z,80.87
2018-06-11T03:29:10.522Z,79.98
2018-06-11T03:31:38.898Z,79.88
2018-06-11T03:34:07.298Z,80.25
2018-06-11T03:36:35.678Z,79.63
2018-06-11T03:39:06.070Z,80.34
2018-06-11T03:41:34.450Z,79.81
2018-06-11T03:44:02.850Z,80.21
2018-06-11T03:46:31.226Z,79.69
2018-06-11T03:48:59.627Z,79.72
2018-06-11T03:51:28.000Z,80.29
2018-06-11T03:53:56.406Z,79.73
2018-06-11T03:56:24.786Z,80.39
2018-06-11T03:58:53.188Z,79.70
2018-06-11T04:01:21.566Z,79.72
2018-06-11T04:03:49.982Z,80.62
2018-06-11T04:06:18.354Z,79.86
2018-06-11T04:08:46.766Z,80.46
2018-06-11T04:11:15.198Z,79.58
2018-06-11T04:13:43.575Z,80.14
2018-06-11T04:16:11.946Z,79.64
2018-06-11T04:18:40.327Z,79.78
2018-06-11T04:21:08.727Z,79.94
2018-06-11T04:23:37.103Z,80.17
2018-06-11T04:26:05.778Z,80.41
2018-06-11T04:28:34.151Z,79.33
2018-06-11T04:31:02.631Z,79.53
2018-06-11T04:33:31.058Z,78.37
2018-06-11T04:35:59.450Z,78.31
2018-06-11T04:38:27.854Z,77.62
2018-06-11T04:40:56.253Z,77.93
2018-06-11T04:43:24.622Z,78.24
2018-06-11T04:45:53.014Z,77.36
2018-06-11T04:48:21.386Z,78.08
2018-06-11T04:50:49.781Z,77.18
2018-06-11T04:53:18.154Z,77.51
2018-06-11T04:55:46.550Z,77.00
2018-06-11T04:58:14.923Z,77.19
2018-06-11T05:00:43.318Z,77.53
2018-06-11T05:03:11.716Z,77.09
2018-06-11T05:05:40.114Z,76.17
2018-06-11T05:08:08.541Z,76.65
2018-06-11T05:10:36.906Z,75.96
2018-06-11T05:13:05.273Z,74.80
2018-06-11T05:15:33.682Z,74.71
2018-06-11T05:18:02.086Z,74.35
2018-06-11T05:20:30.482Z,73.92
2018-06-11T05:22:58.888Z,73.54
2018-06-11T05:25:27.283Z,73.46
2018-06-11T05:27:55.661Z,73.59
2018-06-11T05:30:24.055Z,74.24
2018-06-11T05:32:52.427Z,74.07
2018-06-11T05:35:20.799Z,74.02
2018-06-11T05:37:49.195Z,73.61
2018-06-11T05:40:17.578Z,73.63
2018-06-11T05:42:45.976Z,74.16
2018-06-11T05:45:14.347Z,73.14
2018-06-11T05:47:42.742Z,73.78
2018-06-11T05:50:11.110Z,74.13
2018-06-11T05:52:39.506Z,73.54
2018-06-11T05:55:07.881Z,73.16
2018-06-11T05:57:36.339Z,73.40
2018-06-11T06:00:04.895Z,72.82
2018-06-11T06:02:33.314Z,72.96
2018-06-11T06:05:01.696Z,72.52
2018-06-11T06:07:30.094Z,73.08
2018-06-11T06:09:58.470Z,72.73
2018-06-11T06:12:26.866Z,73.22
2018-06-11T06:14:55.239Z,72.28
2018-06-11T06:17:23.634Z,72.28
2018-06-11T06:19:52.006Z,72.03
2018-06-11T06:22:20.405Z,71.81
2018-06-11T06:24:48.786Z,70.68
2018-06-11T06:27:17.215Z,70.82
2018-06-11T06:29:45.594Z,70.10
2018-06-11T06:32:14.002Z,69.62
2018-06-11T06:34:42.437Z,70.08
2018-06-11T06:37:10.815Z,68.82
2018-06-11T06:39:39.226Z,68.22
2018-06-11T06:42:07.632Z,68.70
2018-06-11T06:44:36.016Z,67.53
2018-06-11T06:47:04.416Z,66.51
2018-06-11T06:49:32.790Z,67.39
2018-06-11T06:52:01.199Z,66.10
2018-06-11T06:54:29.575Z,66.00
2018-06-11T06:56:57.943Z,65.00
2018-06-11T06:59:26.378Z,65.32
2018-06-11T07:01:54.746Z,64.29
2018-06-11T07:04:23.156Z,63.22
2018-06-11T07:06:51.522Z,62.25
2018-06-11T07:09:19.919Z,61.74
2018-06-11T07:11:48.290Z,59.29
2018-06-11T07:14:16.676Z,58.96
2018-06-11T07:16:45.051Z,58.98
2018-06-11T07:19:13.447Z,59.34
2018-06-11T07:21:41.825Z,59.06
2018-06-11T07:24:10.214Z,59.71
2018-06-11T07:26:38.584Z,59.85
2018-06-11T07:29:06.974Z,58.56
2018-06-11T07:31:35.338Z,58.57
2018-06-11T07:34:03.735Z,57.26
2018-06-11T07:36:32.119Z,57.47
2018-06-11T07:39:00.621Z,56.57
2018-06-11T07:41:28.992Z,56.97
2018-06-11T07:43:57.415Z,58.00
2018-06-11T07:46:25.786Z,57.81
2018-06-11T07:48:54.150Z,57.43
2018-06-11T07:51:22.564Z,56.82
2018-06-11T07:53:50.938Z,54.66
2018-06-11T07:56:19.322Z,55.47
2018-06-11T07:58:47.690Z,56.13
2018-06-11T08:01:16.087Z,55.59
2018-06-11T08:03:44.495Z,55.19
2018-06-11T08:06:12.895Z,55.45
2018-06-11T08:08:41.268Z,55.66
2018-06-11T08:11:09.661Z,55.51
2018-06-11T08:13:38.098Z,54.95
2018-06-11T08:16:06.455Z,55.77
2018-06-11T08:18:34.819Z,53.13
2018-06-11T08:21:03.206Z,51.99
2018-06-11T08:23:31.580Z,51.01
2018-06-11T08:25:59.963Z,50.90
2018-06-11T08:28:28.331Z,51.75
2018-06-11T08:30:56.743Z,52.40
2018-06-11T08:33:25.112Z,52.13
2018-06-11T08:35:53.507Z,50.47
2018-06-11T08:38:21.883Z,50.04
2018-06-11T08:40:50.294Z,50.30
2018-06-11T08:43:18.720Z,50.36
2018-06-11T08:45:47.073Z,49.19
2018-06-11T08:48:15.454Z,49.62
2018-06-11T08:50:43.821Z,49.60
2018-06-11T08:53:12.205Z,48.83
2018-06-11T08:55:40.570Z,49.22
2018-06-11T08:58:09.165Z,48.39
2018-06-11T09:00:37.534Z,47.86
2018-06-11T09:03:05.951Z,48.15
2018-06-11T09:05:34.318Z,48.54
2018-06-11T09:08:02.714Z,47.48
2018-06-11T09:10:31.083Z,47.76
2018-06-11T09:12:59.483Z,47.53
2018-06-11T09:15:27.846Z,48.14
2018-06-11T09:17:56.271Z,47.95
2018-06-11T09:20:24.641Z,47.45
2018-06-11T09:22:53.035Z,46.62
2018-06-11T09:25:21.404Z,46.78
2018-06-11T09:27:49.787Z,47.78
2018-06-11T09:30:18.158Z,47.08
2018-06-11T09:32:46.547Z,47.19
2018-06-11T09:35:14.954Z,47.30
2018-06-11T09:37:43.326Z,46.40
2018-06-11T09:40:11.719Z,45.75
2018-06-11T09:42:40.099Z,44.81
2018-06-11T09:45:08.494Z,45.37
2018-06-11T09:47:36.863Z,43.67
2018-06-11T09:50:05.290Z,43.98
2018-06-11T09:52:33.655Z,43.78
2018-06-11T09:55:02.046Z,44.63
2018-06-11T09:57:30.405Z,44.51
2018-06-11T09:59:58.849Z,45.20
2018-06-11T10:02:27.243Z,45.30
2018-06-11T10:04:55.626Z,44.16
2018-06-11T10:07:23.998Z,45.14
2018-06-11T10:09:52.389Z,43.72
2018-06-11T10:12:20.833Z,45.78
2018-06-11T10:14:49.172Z,45.07
2018-06-11T10:17:17.544Z,45.24
2018-06-11T10:19:45.936Z,44.67
2018-06-11T10:22:14.363Z,44.26
2018-06-11T10:24:42.754Z,44.63
2018-06-11T10:27:11.197Z,44.05
2018-06-11T10:29:39.594Z,45.28
2018-06-11T10:32:07.982Z,45.79
2018-06-11T10:34:36.369Z,46.42
2018-06-11T10:37:04.746Z,46.52
2018-06-11T10:39:33.143Z,44.63
2018-06-11T10:42:01.515Z,44.62
2018-06-11T10:44:29.912Z,43.07
2018-06-11T10:46:58.303Z,43.54
2018-06-11T10:49:26.695Z,43.17
2018-06-11T10:51:55.071Z,44.02
2018-06-11T10:54:23.482Z,43.56
2018-06-11T10:56:51.849Z,44.09
2018-06-11T10:59:20.221Z,45.89
2018-06-11T11:01:48.638Z,46.99
2018-06-11T11:04:17.025Z,45.79
2018-06-11T11:06:45.422Z,46.94
2018-06-11T11:09:13.794Z,46.61
2018-06-11T11:11:42.190Z,46.20
2018-06-11T11:14:10.571Z,46.24
2018-06-11T11:16:38.958Z,45.02
2018-06-11T11:19:07.339Z,43.95
2018-06-11T11:21:35.738Z,43.18
2018-06-11T11:24:04.154Z,43.34
2018-06-11T11:26:32.532Z,43.29
2018-06-11T11:29:00.902Z,43.44
2018-06-11T11:31:29.299Z,43.44
2018-06-11T11:33:57.695Z,43.77
2018-06-11T11:36:26.095Z,43.58
2018-06-11T11:38:54.474Z,43.44
2018-06-11T11:41:23.508Z,44.29
2018-06-11T11:43:51.882Z,43.77
2018-06-11T11:46:20.278Z,43.24
2018-06-11T11:48:48.634Z,42.32
2018-06-11T11:51:17.026Z,42.63
2018-06-11T11:53:45.394Z,42.64
2018-06-11T11:56:13.805Z,42.08
2018-06-11T11:58:42.173Z,41.02
2018-06-11T12:01:10.570Z,41.34
2018-06-11T12:03:38.953Z,41.08
2018-06-11T12:06:07.435Z,41.56
2018-06-11T12:08:35.807Z,42.03
2018-06-11T12:11:04.213Z,42.29
2018-06-11T12:13:32.604Z,41.72
2018-06-11T12:16:00.974Z,41.03
2018-06-11T12:18:29.412Z,42.06
2018-06-11T12:20:57.782Z,42.17
2018-06-11T12:23:26.273Z,42.35
2018-06-11T12:25:54.638Z,41.83
2018-06-11T12:28:23.031Z,41.73
2018-06-11T12:30:51.404Z,41.92
2018-06-11T12:33:19.790Z,40.90
2018-06-11T12:35:48.155Z,40.91
2018-06-11T12:38:16.543Z,40.20
2018-06-11T12:40:44.908Z,41.46
2018-06-11T12:43:13.290Z,41.61
2018-06-11T12:45:41.658Z,40.29
2018-06-11T12:48:10.038Z,40.04
2018-06-11T12:50:38.422Z,39.88
2018-06-11T12:53:08.519Z,40.35
2018-06-11T12:55:36.890Z,41.33
2018-06-11T12:58:05.303Z,39.73
2018-06-11T13:00:33.695Z,39.76
2018-06-11T13:03:02.183Z,38.97
2018-06-11T13:05:30.551Z,40.04
2018-06-11T13:07:58.939Z,40.03
2018-06-11T13:10:27.307Z,39.33
2018-06-11T13:12:55.692Z,37.90
2018-06-11T13:15:24.063Z,38.86
2018-06-11T13:17:52.451Z,39.02
2018-06-11T13:20:20.822Z,39.48
2018-06-11T13:22:49.214Z,39.49
2018-06-11T13:25:17.578Z,39.21
2018-06-11T13:27:45.990Z,40.37
2018-06-11T13:30:14.351Z,40.49
2018-06-11T13:32:42.710Z,39.27
2018-06-11T13:35:11.129Z,40.09
2018-06-11T13:37:39.494Z,40.03
2018-06-11T13:40:07.888Z,39.80
2018-06-11T13:42:36.254Z,40.06
2018-06-11T13:45:04.714Z,39.00
2018-06-11T13:47:33.087Z,39.13
2018-06-11T13:50:01.478Z,39.51
2018-06-11T13:52:29.866Z,39.55
2018-06-11T13:54:58.259Z,39.19
2018-06-11T13:57:26.630Z,38.75
2018-06-11T13:59:55.019Z,40.31
2018-06-11T14:02:23.402Z,39.86
2018-06-11T14:04:51.782Z,40.35
2018-06-11T14:07:20.158Z,39.15
2018-06-11T14:09:48.558Z,38.84
2018-06-11T14:12:16.943Z,38.61
2018-06-11T14:14:45.334Z,38.56
2018-06-11T14:17:13.698Z,38.59
2018-06-11T14:19:42.095Z,40.02
2018-06-11T14:22:10.459Z,39.12
2018-06-11T14:24:38.842Z,39.25
2018-06-11T14:27:07.210Z,39.81
2018-06-11T14:29:35.606Z,39.25
2018-06-11T14:32:04.139Z,39.90
2018-06-11T14:34:32.531Z,39.97
2018-06-11T14:37:01.031Z,40.00
2018-06-11T14:39:29.558Z,40.53
2018-06-11T14:41:57.965Z,39.72
2018-06-11T14:44:26.348Z,40.07
2018-06-11T14:46:54.752Z,39.54
2018-06-11T14:49:23.131Z,39.20
2018-06-11T14:51:51.522Z,39.03
2018-06-11T14:54:19.894Z,38.11
2018-06-11T14:56:48.282Z,37.91
2018-06-11T14:59:16.652Z,38.84
2018-06-11T15:01:45.043Z,38.81
2018-06-11T15:04:13.435Z,37.44
2018-06-11T15:06:41.822Z,37.19
2018-06-11T15:09:10.191Z,37.90
2018-06-11T15:11:38.584Z,38.68
2018-06-11T15:14:06.975Z,37.27
2018-06-11T15:16:35.358Z,37.12
2018-06-11T15:19:03.856Z,36.36
2018-06-11T15:21:33.038Z,36.77
2018-06-11T15:24:01.402Z,36.48
2018-06-11T15:26:29.791Z,36.36
2018-06-11T15:28:58.159Z,37.34
2018-06-11T15:31:26.555Z,36.42
2018-06-11T15:33:54.918Z,36.87
2018-06-11T15:36:23.310Z,36.65
2018-06-11T15:38:51.674Z,36.89
2018-06-11T15:41:20.059Z,36.29
2018-06-11T15:43:48.423Z,37.30
2018-06-11T15:46:16.823Z,37.59
2018-06-11T15:48:45.183Z,37.28
2018-06-11T15:51:13.578Z,36.90
2018-06-11T15:53:41.951Z,37.19
2018-06-11T15:56:10.352Z,37.64
2018-06-11T15:58:38.722Z,37.99
2018-06-11T16:01:07.295Z,37.86
2018-06-11T16:03:35.690Z,36.66
2018-06-11T16:06:04.066Z,37.52
2018-06-11T16:08:32.466Z,36.83
2018-06-11T16:11:00.838Z,37.44
2018-06-11T16:13:29.236Z,37.61
2018-06-11T16:15:57.603Z,37.91
2018-06-11T16:18:26.011Z,36.99
2018-06-11T16:20:54.385Z,37.87
2018-06-11T16:23:22.779Z,37.48
2018-06-11T16:25:51.238Z,38.53
2018-06-11T16:28:19.641Z,37.79
2018-06-11T16:30:48.019Z,37.68
2018-06-11T16:33:16.428Z,37.31
2018-06-11T16:35:44.799Z,37.02
2018-06-11T16:38:13.228Z,35.89
2018-06-11T16:40:41.620Z,36.76
2018-06-11T16:43:10.178Z,35.82
2018-06-11T16:45:38.927Z,35.14
2018-06-11T16:48:07.314Z,34.46
2018-06-11T16:50:35.692Z,34.44
2018-06-11T16:53:04.088Z,34.02
2018-06-11T16:55:32.467Z,32.93
2018-06-11T16:58:00.859Z,32.62
2018-06-11T17:00:29.237Z,31.80
2018-06-11T17:02:57.654Z,32.45
2018-06-11T17:05:26.101Z,32.35
2018-06-11T17:07:54.519Z,31.67
2018-06-11T17:10:22.939Z,31.72
2018-06-11T17:12:51.326Z,32.10
2018-06-11T17:15:19.696Z,31.84
2018-06-11T17:17:48.115Z,31.42
2018-06-11T17:20:16.556Z,30.27
2018-06-11T17:22:44.942Z,31.13
2018-06-11T17:25:13.319Z,30.71
2018-06-11T17:27:41.702Z,31.72
2018-06-11T17:30:10.107Z,30.61
2018-06-11T17:32:38.519Z,31.00
2018-06-11T17:35:06.914Z,32.35
2018-06-11T17:37:35.403Z,32.26
2018-06-11T17:40:03.815Z,33.17
2018-06-11T17:42:32.186Z,33.89
2018-06-11T17:45:00.599Z,32.79
2018-06-11T17:47:28.992Z,34.31
2018-06-11T17:49:57.648Z,34.91
2018-06-11T17:52:26.019Z,34.01
2018-06-11T17:54:54.406Z,35.38
2018-06-11T17:57:22.872Z,35.84
2018-06-11T17:59:51.315Z,37.18
2018-06-11T18:02:19.727Z,37.17
2018-06-11T18:04:48.126Z,38.90
2018-06-11T18:07:16.497Z,39.98
2018-06-11T18:09:44.911Z,40.53
2018-06-11T18:12:13.304Z,40.74
2018-06-11T18:14:41.712Z,41.86
2018-06-11T18:17:10.098Z,42.06
2018-06-11T18:19:38.503Z,43.80
2018-06-11T18:22:06.888Z,43.60
2018-06-11T18:24:35.282Z,44.17
2018-06-11T18:27:03.658Z,45.36
2018-06-11T18:29:32.048Z,45.95
2018-06-11T18:32:00.418Z,45.83
2018-06-11T18:34:28.815Z,47.03
2018-06-11T18:36:57.187Z,46.22
2018-06-11T18:39:25.575Z,47.10
2018-06-11T18:41:54.003Z,47.40
2018-06-11T18:44:22.610Z,47.42
2018-06-11T18:46:50.998Z,48.00
2018-06-11T18:49:19.367Z,47.63
2018-06-11T18:51:47.767Z,48.31
2018-06-11T18:54:16.142Z,48.30
2018-06-11T18:56:44.530Z,49.14
2018-06-11T18:59:12.902Z,49.63
2018-06-11T19:01:41.289Z,49.36
2018-06-11T19:04:09.714Z,49.81
2018-06-11T19:06:38.114Z,50.88
2018-06-11T19:09:08.166Z,50.71
2018-06-11T19:11:36.562Z,51.29
2018-06-11T19:14:04.944Z,51.71
2018-06-11T19:16:33.334Z,51.39
2018-06-11T19:19:02.152Z,51.84
2018-06-11T19:21:30.538Z,52.65
2018-06-11T19:23:58.914Z,53.44
2018-06-11T19:26:27.319Z,53.10
2018-06-11T19:28:55.695Z,53.04
2018-06-11T19:31:24.098Z,53.92
2018-06-11T19:33:52.476Z,54.14
2018-06-11T19:36:20.876Z,54.48
2018-06-11T19:38:49.241Z,55.33
2018-06-11T19:41:17.642Z,54.90
2018-06-11T19:43:46.010Z,54.90
2018-06-11T19:46:14.411Z,55.04
2018-06-11T19:48:42.782Z,55.59
2018-06-11T19:51:11.209Z,55.77
2018-06-11T19:53:39.578Z,56.04
2018-06-11T19:56:07.974Z,56.61
2018-06-11T19:58:36.353Z,56.71
2018-06-11T20:01:04.854Z,57.68
2018-06-11T20:03:33.255Z,57.88
2018-06-11T20:06:01.715Z,57.40
2018-06-11T20:08:30.090Z,58.45
2018-06-11T20:10:58.467Z,58.50
2018-06-11T20:13:26.874Z,58.50
2018-06-11T20:15:55.242Z,59.15
2018-06-11T20:18:23.632Z,58.53
2018-06-11T20:20:52.014Z,58.80
2018-06-11T20:23:20.417Z,59.07
2018-06-11T20:25:48.788Z,59.81
2018-06-11T20:28:17.207Z,59.97
2018-06-11T20:30:45.580Z,60.17
2018-06-11T20:33:13.978Z,61.01
2018-06-11T20:35:42.342Z,61.37
2018-06-11T20:38:10.738Z,61.29
2018-06-11T20:40:39.111Z,61.58
2018-06-11T20:43:07.502Z,61.86
2018-06-11T20:45:35.875Z,61.66
2018-06-11T20:48:04.426Z,61.69
2018-06-11T20:50:32.786Z,61.77
2018-06-11T20:53:01.190Z,62.77
2018-06-11T20:55:29.562Z,62.89
2018-06-11T20:57:57.967Z,62.31
2018-06-11T21:00:26.347Z,62.70
2018-06-11T21:02:54.761Z,62.03
2018-06-11T21:05:23.137Z,62.17
2018-06-11T21:07:51.539Z,62.16
2018-06-11T21:10:19.918Z,62.71
2018-06-11T21:12:48.319Z,62.29
2018-06-11T21:15:16.691Z,62.49
2018-06-11T21:17:45.094Z,63.09
2018-06-11T21:20:13.467Z,62.84
2018-06-11T21:22:41.864Z,63.33
2018-06-11T21:25:10.253Z,63.36
2018-06-11T21:27:38.675Z,62.99
2018-06-11T21:30:07.042Z,63.12
2018-06-11T21:32:35.410Z,63.74
2018-06-11T21:35:03.811Z,63.25
2018-06-11T21:37:32.189Z,63.51
2018-06-11T21:40:00.610Z,64.15
2018-06-11T21:42:29.022Z,63.83
2018-06-11T21:44:57.416Z,64.03
2018-06-11T21:47:25.790Z,64.94
2018-06-11T21:49:54.193Z,64.63
2018-06-11T21:52:22.563Z,64.37
2018-06-11T21:54:50.966Z,65.12
2018-06-11T21:57:19.331Z,65.13
2018-06-11T21:59:47.723Z,64.69
2018-06-11T22:02:16.099Z,64.94
2018-06-11T22:04:44.519Z,65.04
2018-06-11T22:07:12.897Z,65.86
2018-06-11T22:09:41.310Z,65.32
2018-06-11T22:12:09.678Z,66.14
2018-06-11T22:14:38.070Z,65.70
2018-06-11T22:17:06.439Z,66.78
2018-06-11T22:19:34.834Z,66.24
2018-06-11T22:22:03.209Z,66.42
2018-06-11T22:24:31.602Z,67.04
2018-06-11T22:26:59.974Z,66.56
2018-06-11T22:29:28.365Z,67.76
2018-06-11T22:31:56.727Z,67.57
2018-06-11T22:34:25.119Z,67.83
2018-06-11T22:36:53.493Z,67.46
2018-06-11T22:39:21.885Z,68.15
2018-06-11T22:41:50.253Z,67.57
2018-06-11T22:44:18.646Z,68.47
2018-06-11T22:46:47.019Z,68.22
2018-06-11T22:49:15.423Z,68.33
2018-06-11T22:51:43.799Z,68.26
2018-06-11T22:54:12.174Z,68.53
2018-06-11T22:56:40.571Z,69.12
2018-06-11T22:59:08.947Z,68.80
2018-06-11T23:01:37.343Z,69.92
2018-06-11T23:04:05.775Z,69.95
2018-06-11T23:06:34.162Z,69.57
2018-06-11T23:09:02.544Z,69.84
2018-06-11T23:11:30.938Z,70.32
2018-06-11T23:13:59.318Z,69.96
2018-06-11T23:16:27.715Z,70.75
2018-06-11T23:18:56.090Z,70.08
2018-06-11T23:21:24.497Z,71.23
2018-06-11T23:23:52.881Z,71.49
2018-06-11T23:26:21.279Z,71.52
2018-06-11T23:28:49.663Z,71.86
2018-06-11T23:31:18.068Z,72.13
2018-06-11T23:33:46.443Z,71.54
2018-06-11T23:36:14.842Z,72.28
2018-06-11T23:38:43.219Z,72.61
2018-06-11T23:41:11.642Z,72.54
2018-06-11T23:43:40.011Z,72.63
2018-06-11T23:46:08.415Z,72.45
2018-06-11T23:48:36.790Z,73.26
2018-06-11T23:51:05.192Z,72.69
2018-06-11T23:53:33.573Z,73.15
2018-06-11T23:56:01.966Z,73.12
2018-06-11T23:58:30.339Z,73.73
